Historique des mesures à Cassis (13260), France
Quotidien Résumé Mars 10, 2017 Unités:  US    Métrique   Métrique/US
« Précédent (Jour)
Suivant (Jour) »
Quotidien Hebdomadaire Mensuel Annuel Période au choix
  Maximum: Minimum: Moyenne:
Température: 32 °F 55.9 °F 61.5 °F
Point de rosée: 32 °F 40.8 °F 45.1 °F
Humidité: Humidity % 43 % 52 %
Vitesse du vent: WindSpeedKMH mph 0.0 mph 6 mph
Rafales: WindSpeedGustKMH mph - -
Vent:- - SSE
Pression: 0 in 29.9 in -
Précipitations: 0 in    
Historical Graphs
 
 
Mesures pour : Mars 10, 2017
Heure Temperature Point de rosée Pression Vent Vitesse du vent Rafales Humidité Pluie (par heure) Conditions
32 °F 32 °F 0 in Calm     Humidity % 0 in SoftwareType W/m2
00:11 59.2 °F 44.8 °F 30 in NNE 8.2 mph 15.4 mph 59 % 0 in open2300-1.11 W/m2
01:10 58.8 °F 44.4 °F 30 in North 1.8 mph 7.2 mph 59 % 0 in open2300-1.11 W/m2
02:11 58.8 °F 44.4 °F 29.9 in WNW 6.8 mph 16.9 mph 59 % 0 in open2300-1.11 W/m2
03:10 58.8 °F 44.4 °F 29.9 in West 3.2 mph 8.2 mph 59 % 0 in open2300-1.11 W/m2
04:11 57.9 °F 44.2 °F 29.9 in North 4.0 mph 9.0 mph 60 % 0 in open2300-1.11 W/m2
05:10 57 °F 44.4 °F 29.9 in WNW 10.1 mph 10.8 mph 63 % 0 in open2300-1.11 W/m2
06:11 56.5 °F 44.1 °F 29.9 in North 13.7 mph 13.7 mph 63 % 0 in open2300-1.11 W/m2
07:10 55.9 °F 43.9 °F 29.9 in NNW 9.0 mph 9.0 mph 64 % 0 in open2300-1.11 W/m2
08:11 57.2 °F 44.8 °F 29.9 in NNE 16.6 mph 16.6 mph 63 % 0 in open2300-1.11 W/m2
09:10 59.2 °F 45.7 °F 29.9 in North 13.4 mph 13.4 mph 61 % 0 in open2300-1.11 W/m2
10:11 61.7 °F 46 °F 29.9 in North 6.8 mph 7.9 mph 57 % 0 in open2300-1.11 W/m2
11:10 65.1 °F 47.5 °F 29.9 in East 1.4 mph 7.9 mph 53 % 0 in open2300-1.11 W/m2
12:11 68 °F 46.9 °F 29.9 in NW 19.1 mph 19.1 mph 47 % 0 in open2300-1.11 W/m2
13:10 70.5 °F 47.5 °F 29.9 in North 3.5 mph 6.1 mph 44 % 0 in open2300-1.11 W/m2
14:11 72.5 °F 48.6 °F 29.9 in NNW 4.0 mph 6.1 mph 43 % 0 in open2300-1.11 W/m2
15:10 72 °F 49.3 °F 29.9 in WSW 8.7 mph 8.7 mph 45 % 0 in open2300-1.11 W/m2
16:11 71.8 °F 49.3 °F 29.9 in West 5.5 mph 13.0 mph 45 % 0 in open2300-1.11 W/m2
17:10 71.4 °F 49.5 °F 29.9 in Calm   1.8 mph 46 % 0 in open2300-1.11 W/m2
18:11 68.9 °F 47.8 °F 29.9 in Calm     47 % 0 in open2300-1.11 W/m2
19:10 64.6 °F 46.6 °F 29.9 in Calm   2.6 mph 52 % 0 in open2300-1.11 W/m2
21:10 61.7 °F 44.8 °F 30 in NW 6.4 mph 6.4 mph 54 % 0 in open2300-1.11 W/m2
22:11 59.9 °F 42.6 °F 30 in Calm     53 % 0 in open2300-1.11 W/m2
23:10 58.8 °F 40.8 °F 30 in North 1.1 mph 3.5 mph 51 % 0 in open2300-1.11 W/m2
Observations météo à CASSIS
WU-History script by Weather Underground - 1 mb